createdAt,value
2023-02-28T00:01:32.930Z,51.86
2023-02-28T00:04:01.746Z,52.48
2023-02-28T00:06:30.312Z,52.02
2023-02-28T00:08:58.779Z,52.39
2023-02-28T00:11:27.558Z,52.44
2023-02-28T00:13:57.682Z,52.61
2023-02-28T00:16:26.284Z,51.73
2023-02-28T00:18:54.798Z,52.06
2023-02-28T00:21:23.344Z,52.62
2023-02-28T00:23:51.799Z,51.65
2023-02-28T00:26:21.941Z,52.32
2023-02-28T00:28:51.350Z,52.28
2023-02-28T00:31:21.202Z,51.86
2023-02-28T00:33:50.272Z,52.10
2023-02-28T00:36:18.660Z,52.09
2023-02-28T00:38:47.236Z,51.90
2023-02-28T00:41:15.590Z,52.27
2023-02-28T00:43:44.160Z,52.01
2023-02-28T00:46:13.348Z,51.88
2023-02-28T00:48:43.191Z,51.90
2023-02-28T00:51:11.677Z,51.66
2023-02-28T00:53:40.098Z,52.44
2023-02-28T00:56:09.051Z,52.53
2023-02-28T00:58:37.443Z,52.74
2023-02-28T01:01:06.263Z,51.86
2023-02-28T01:03:35.101Z,51.98
2023-02-28T01:06:04.977Z,51.75
2023-02-28T01:08:33.658Z,51.94
2023-02-28T01:11:11.038Z,51.55
2023-02-28T01:13:42.340Z,52.60
2023-02-28T01:16:11.019Z,51.67
2023-02-28T01:18:40.086Z,52.41
2023-02-28T01:21:11.688Z,51.76
2023-02-28T01:23:40.534Z,50.82
2023-02-28T01:26:10.283Z,51.34
2023-02-28T01:28:41.654Z,51.37
2023-02-28T01:31:10.997Z,51.76
2023-02-28T01:33:40.583Z,52.01
2023-02-28T01:36:14.169Z,51.27
2023-02-28T01:38:42.716Z,52.10
2023-02-28T01:41:17.409Z,52.20
2023-02-28T01:44:06.556Z,51.97
2023-02-28T01:46:36.443Z,52.30
2023-02-28T01:49:11.237Z,52.75
2023-02-28T01:51:46.757Z,53.35
2023-02-28T01:54:19.266Z,54.26
2023-02-28T01:56:53.335Z,54.31
2023-02-28T01:59:27.041Z,54.91
2023-02-28T02:01:56.454Z,54.86
2023-02-28T02:04:29.322Z,54.84
2023-02-28T02:07:00.811Z,55.04
2023-02-28T02:09:29.217Z,54.50
2023-02-28T02:11:58.821Z,53.87
2023-02-28T02:14:53.534Z,53.79
2023-02-28T02:17:34.578Z,53.29
2023-02-28T02:20:35.964Z,52.62
2023-02-28T02:23:29.969Z,52.68
2023-02-28T02:26:02.740Z,51.90
2023-02-28T02:29:14.060Z,52.79
2023-02-28T02:32:17.761Z,52.60
2023-02-28T02:34:58.683Z,52.97
2023-02-28T02:37:38.383Z,53.25
2023-02-28T02:40:16.080Z,53.24
2023-02-28T02:42:51.841Z,53.26
2023-02-28T02:45:25.088Z,53.97
2023-02-28T02:47:57.956Z,53.30
2023-02-28T02:50:32.946Z,53.67
2023-02-28T02:53:05.275Z,54.34
2023-02-28T02:55:39.454Z,54.54
2023-02-28T02:58:12.678Z,54.38
2023-02-28T03:00:47.807Z,54.68
2023-02-28T03:03:18.989Z,54.42
2023-02-28T03:05:51.235Z,54.38
2023-02-28T03:08:20.914Z,54.16
2023-02-28T03:10:52.804Z,53.95
2023-02-28T03:13:41.835Z,54.48
2023-02-28T03:16:33.135Z,54.09
2023-02-28T03:19:13.077Z,54.25
2023-02-28T03:21:52.317Z,53.88
2023-02-28T03:24:27.311Z,54.33
2023-02-28T03:27:01.682Z,53.94
2023-02-28T03:29:35.869Z,53.98
2023-02-28T03:32:15.734Z,53.18
2023-02-28T03:34:49.808Z,53.88
2023-02-28T03:37:24.541Z,54.08
2023-02-28T03:39:57.997Z,55.03
2023-02-28T03:42:30.204Z,53.41
2023-02-28T03:45:02.412Z,53.36
2023-02-28T03:47:38.065Z,53.56
2023-02-28T03:50:12.136Z,53.78
2023-02-28T03:52:47.447Z,53.53
2023-02-28T03:55:18.055Z,53.27
2023-02-28T03:57:57.805Z,53.13
2023-02-28T04:00:33.964Z,53.52
2023-02-28T04:03:02.492Z,53.41
2023-02-28T04:05:31.807Z,53.90
2023-02-28T04:08:08.880Z,54.38
2023-02-28T04:10:37.350Z,54.46
2023-02-28T04:13:05.651Z,53.92
2023-02-28T04:15:34.297Z,54.07
2023-02-28T04:18:02.586Z,54.94
2023-02-28T04:20:31.005Z,55.00
2023-02-28T04:22:59.424Z,54.77
2023-02-28T04:25:29.367Z,55.60
2023-02-28T04:27:57.714Z,54.53
2023-02-28T04:30:26.114Z,54.87
2023-02-28T04:32:54.518Z,55.26
2023-02-28T04:35:22.913Z,54.96
2023-02-28T04:37:51.311Z,54.91
2023-02-28T04:40:20.060Z,55.01
2023-02-28T04:42:49.801Z,55.04
2023-02-28T04:45:18.463Z,54.57
2023-02-28T04:47:46.841Z,54.08
2023-02-28T04:50:15.254Z,54.23
2023-02-28T04:52:43.614Z,55.11
2023-02-28T04:55:12.613Z,54.73
2023-02-28T04:57:40.926Z,55.29
2023-02-28T05:00:13.985Z,55.60
2023-02-28T05:02:42.408Z,55.43
2023-02-28T05:05:11.140Z,56.16
2023-02-28T05:07:39.656Z,57.26
2023-02-28T05:10:08.664Z,57.86
2023-02-28T05:12:37.072Z,57.54
2023-02-28T05:15:06.147Z,57.84
2023-02-28T05:17:35.877Z,58.60
2023-02-28T05:20:14.993Z,59.07
2023-02-28T05:22:44.651Z,58.50
2023-02-28T05:25:16.134Z,59.38
2023-02-28T05:27:45.372Z,58.82
2023-02-28T05:30:14.257Z,59.48
2023-02-28T05:32:45.037Z,59.96
2023-02-28T05:35:13.975Z,59.99
2023-02-28T05:37:42.607Z,60.06
2023-02-28T05:40:12.489Z,60.84
2023-02-28T05:42:40.992Z,60.82
2023-02-28T05:45:11.227Z,60.86
2023-02-28T05:47:39.541Z,60.70
2023-02-28T05:50:11.735Z,61.15
2023-02-28T05:52:40.159Z,61.30
2023-02-28T05:55:09.343Z,61.27
2023-02-28T05:57:37.792Z,61.01
2023-02-28T06:00:07.187Z,61.63
2023-02-28T06:02:41.548Z,61.62
2023-02-28T06:05:16.297Z,62.64
2023-02-28T06:07:45.082Z,61.73
2023-02-28T06:10:13.953Z,61.87
2023-02-28T06:12:43.829Z,62.30
2023-02-28T06:15:15.451Z,62.48
2023-02-28T06:17:44.014Z,62.69
2023-02-28T06:20:15.056Z,62.48
2023-02-28T06:22:43.958Z,62.33
2023-02-28T06:25:13.046Z,63.51
2023-02-28T06:27:41.548Z,63.13
2023-02-28T06:30:11.034Z,62.90
2023-02-28T06:32:40.333Z,63.90
2023-02-28T06:35:09.428Z,63.73
2023-02-28T06:37:41.634Z,63.57
2023-02-28T06:40:14.080Z,64.08
2023-02-28T06:42:42.803Z,63.55
2023-02-28T06:45:12.060Z,64.48
2023-02-28T06:47:42.461Z,64.24
2023-02-28T06:50:12.843Z,65.27
2023-02-28T06:52:42.583Z,65.07
2023-02-28T06:55:11.868Z,64.58
2023-02-28T06:57:40.347Z,64.86
2023-02-28T07:00:11.197Z,64.99
2023-02-28T07:02:39.848Z,63.74
2023-02-28T07:05:08.953Z,63.60
2023-02-28T07:07:39.683Z,62.52
2023-02-28T07:10:11.949Z,62.88
2023-02-28T07:12:40.430Z,62.34
2023-02-28T07:15:09.910Z,63.38
2023-02-28T07:17:39.333Z,62.24
2023-02-28T07:20:08.788Z,61.26
2023-02-28T07:22:38.368Z,61.25
2023-02-28T07:25:07.577Z,62.20
2023-02-28T07:27:37.433Z,60.90
2023-02-28T07:30:06.754Z,60.91
2023-02-28T07:32:39.016Z,60.03
2023-02-28T07:35:08.181Z,59.70
2023-02-28T07:37:37.633Z,59.68
2023-02-28T07:40:09.511Z,59.32
2023-02-28T07:42:39.697Z,59.44
2023-02-28T07:45:09.638Z,59.56
2023-02-28T07:47:38.021Z,59.38
2023-02-28T07:50:07.275Z,59.52
2023-02-28T07:52:35.671Z,59.46
2023-02-28T07:55:04.201Z,58.71
2023-02-28T07:57:35.792Z,59.37
2023-02-28T08:00:06.389Z,59.29
2023-02-28T08:02:39.741Z,58.93
2023-02-28T08:05:09.595Z,58.28
2023-02-28T08:07:38.111Z,58.15
2023-02-28T08:10:08.114Z,58.67
2023-02-28T08:12:36.540Z,58.42
2023-02-28T08:15:07.281Z,57.85
2023-02-28T08:17:35.716Z,57.41
2023-02-28T08:20:05.110Z,57.77
2023-02-28T08:22:33.514Z,57.88
2023-02-28T08:25:01.827Z,57.98
2023-02-28T08:27:30.197Z,57.46
2023-02-28T08:29:58.676Z,57.47
2023-02-28T08:32:30.047Z,57.27
2023-02-28T08:34:59.226Z,56.67
2023-02-28T08:37:27.871Z,55.56
2023-02-28T08:39:56.685Z,55.61
2023-02-28T08:42:25.393Z,55.38
2023-02-28T08:44:53.813Z,55.07
2023-02-28T08:47:22.217Z,56.25
2023-02-28T08:49:52.332Z,55.78
2023-02-28T08:52:20.747Z,55.62
2023-02-28T08:54:49.175Z,55.63
2023-02-28T08:57:17.511Z,55.81
2023-02-28T08:59:45.935Z,55.15
2023-02-28T09:02:15.509Z,54.72
2023-02-28T09:04:47.195Z,54.45
2023-02-28T09:07:17.069Z,55.42
2023-02-28T09:09:55.811Z,55.64
2023-02-28T09:12:24.549Z,55.89
2023-02-28T09:14:53.290Z,53.84
2023-02-28T09:17:22.507Z,53.67
2023-02-28T09:19:51.534Z,52.22
2023-02-28T09:22:21.468Z,51.41
2023-02-28T09:24:49.783Z,51.50
2023-02-28T09:27:18.335Z,51.95
2023-02-28T09:29:46.680Z,52.24
2023-02-28T09:32:15.427Z,51.44
2023-02-28T09:34:44.256Z,50.85
2023-02-28T09:37:12.678Z,50.46
2023-02-28T09:39:42.516Z,51.27
2023-02-28T09:42:23.202Z,51.38
2023-02-28T09:44:53.501Z,52.21
2023-02-28T09:47:34.364Z,51.84
2023-02-28T09:50:24.957Z,51.04
2023-02-28T09:52:53.423Z,50.29
2023-02-28T09:55:35.244Z,50.21
2023-02-28T09:58:08.135Z,49.41
2023-02-28T10:00:42.399Z,49.37
2023-02-28T10:03:32.713Z,49.97
2023-02-28T10:06:07.284Z,50.48
2023-02-28T10:08:46.300Z,49.39
2023-02-28T10:11:19.302Z,49.09
2023-02-28T10:13:56.976Z,49.34
2023-02-28T10:16:31.156Z,50.31
2023-02-28T10:19:06.663Z,48.91
2023-02-28T10:21:39.052Z,49.40
2023-02-28T10:24:19.470Z,49.42
2023-02-28T10:26:50.823Z,49.04
2023-02-28T10:29:19.217Z,50.51
2023-02-28T10:31:47.581Z,49.54
2023-02-28T10:34:16.148Z,48.89
2023-02-28T10:36:45.953Z,49.41
2023-02-28T10:39:36.775Z,49.21
2023-02-28T10:42:07.766Z,47.87
2023-02-28T10:44:36.246Z,48.93
2023-02-28T10:47:04.953Z,48.88
2023-02-28T10:49:33.449Z,49.40
2023-02-28T10:52:03.040Z,49.66
2023-02-28T10:54:35.060Z,49.12
2023-02-28T10:57:19.989Z,48.40
2023-02-28T10:59:52.641Z,47.49
2023-02-28T11:02:38.508Z,48.44
2023-02-28T11:05:26.080Z,48.89
2023-02-28T11:07:55.746Z,48.66
2023-02-28T11:10:28.945Z,49.57
2023-02-28T11:13:01.217Z,47.96
2023-02-28T11:15:32.073Z,47.82
2023-02-28T11:18:02.659Z,47.76
2023-02-28T11:20:34.632Z,47.40
2023-02-28T11:23:06.563Z,47.86
2023-02-28T11:25:37.554Z,47.81
2023-02-28T11:28:08.858Z,48.00
2023-02-28T11:30:39.950Z,49.39
2023-02-28T11:33:24.809Z,48.56
2023-02-28T11:35:54.486Z,48.91
2023-02-28T11:38:22.874Z,48.64
2023-02-28T11:41:07.508Z,48.42
2023-02-28T11:43:53.782Z,48.05
2023-02-28T11:46:30.432Z,48.88
2023-02-28T11:49:09.066Z,49.35
2023-02-28T11:51:48.499Z,49.43
2023-02-28T11:54:30.215Z,49.51
2023-02-28T11:57:02.546Z,49.97
2023-02-28T11:59:47.663Z,49.42
2023-02-28T12:02:29.086Z,49.39
2023-02-28T12:05:15.645Z,49.91
2023-02-28T12:07:52.306Z,49.78
2023-02-28T12:10:25.154Z,49.55
2023-02-28T12:13:10.985Z,50.58
2023-02-28T12:16:13.361Z,50.08
2023-02-28T12:19:06.670Z,50.05
2023-02-28T12:21:51.005Z,48.40
2023-02-28T12:24:39.630Z,49.03
2023-02-28T12:27:13.896Z,50.08
2023-02-28T12:29:50.189Z,48.51
2023-02-28T12:32:23.894Z,49.26
2023-02-28T12:34:59.868Z,49.37
2023-02-28T12:37:34.072Z,49.88
2023-02-28T12:40:07.822Z,49.78
2023-02-28T12:42:43.140Z,49.69
2023-02-28T12:45:19.757Z,49.53
2023-02-28T12:47:53.035Z,50.09
2023-02-28T12:50:25.583Z,50.79
2023-02-28T12:52:58.546Z,50.23
2023-02-28T12:55:35.932Z,51.01
2023-02-28T12:58:14.616Z,50.46
2023-02-28T13:01:07.033Z,51.11
2023-02-28T13:04:25.523Z,51.18
2023-02-28T13:07:10.603Z,51.17
2023-02-28T13:09:40.762Z,51.67
2023-02-28T13:12:16.548Z,50.82
2023-02-28T13:14:45.460Z,51.40
2023-02-28T13:17:20.470Z,51.62
2023-02-28T13:19:59.966Z,50.05
2023-02-28T13:22:49.254Z,50.60
2023-02-28T13:25:54.968Z,51.23
2023-02-28T13:28:56.981Z,51.31
2023-02-28T13:31:25.580Z,50.69
2023-02-28T13:34:21.142Z,50.97
2023-02-28T13:36:49.563Z,49.45
2023-02-28T13:39:50.717Z,50.43
2023-02-28T13:42:35.434Z,51.45
2023-02-28T13:45:24.104Z,50.77
2023-02-28T13:48:01.961Z,51.85
2023-02-28T13:50:34.037Z,51.25
2023-02-28T13:53:40.885Z,51.98
2023-02-28T13:56:30.502Z,50.80
2023-02-28T13:59:08.548Z,49.77
2023-02-28T14:01:54.386Z,50.51
2023-02-28T14:05:03.989Z,49.84
2023-02-28T14:07:36.567Z,50.49
2023-02-28T14:10:09.647Z,51.09
2023-02-28T14:13:00.908Z,49.56
2023-02-28T14:15:38.777Z,49.98
2023-02-28T14:18:18.505Z,50.54
2023-02-28T14:20:49.747Z,49.96
2023-02-28T14:23:33.625Z,50.33
2023-02-28T14:26:12.820Z,48.61
2023-02-28T14:28:59.045Z,49.65
2023-02-28T14:31:34.932Z,48.84
2023-02-28T14:34:32.112Z,48.08
2023-02-28T14:37:04.598Z,48.60
2023-02-28T14:39:34.569Z,48.61
2023-02-28T14:42:06.001Z,48.96
2023-02-28T14:44:38.885Z,47.69
2023-02-28T14:47:16.960Z,47.70
2023-02-28T14:49:48.091Z,47.25
2023-02-28T14:52:21.509Z,47.81
2023-02-28T14:54:55.702Z,47.16
2023-02-28T14:57:26.502Z,48.04
2023-02-28T15:00:11.735Z,48.09
2023-02-28T15:02:41.514Z,48.40
2023-02-28T15:05:26.523Z,47.01
2023-02-28T15:08:05.409Z,48.08
2023-02-28T15:10:34.512Z,47.28
2023-02-28T15:13:06.769Z,47.24
2023-02-28T15:16:05.238Z,48.54
2023-02-28T15:18:44.928Z,48.06
2023-02-28T15:21:17.227Z,48.00
2023-02-28T15:23:50.591Z,48.46
2023-02-28T15:26:22.754Z,48.30
2023-02-28T15:28:54.796Z,47.71
2023-02-28T15:31:34.022Z,47.89
2023-02-28T15:34:07.890Z,48.38
2023-02-28T15:36:38.312Z,48.26
2023-02-28T15:39:21.336Z,48.17
2023-02-28T15:41:50.098Z,49.05
2023-02-28T15:44:28.075Z,49.60
2023-02-28T15:47:03.619Z,49.29
2023-02-28T15:49:44.985Z,49.86
2023-02-28T15:52:18.901Z,50.64
2023-02-28T15:54:48.809Z,50.88
2023-02-28T15:57:21.709Z,50.53
2023-02-28T15:59:55.096Z,52.09
2023-02-28T16:02:33.880Z,51.53
2023-02-28T16:05:21.755Z,51.79
2023-02-28T16:07:50.438Z,52.49
2023-02-28T16:10:18.869Z,51.97
2023-02-28T16:12:47.420Z,52.44
2023-02-28T16:15:23.033Z,53.05
2023-02-28T16:17:53.060Z,53.55
2023-02-28T16:20:23.981Z,53.46
2023-02-28T16:22:52.725Z,53.41
2023-02-28T16:25:25.430Z,53.19
2023-02-28T16:27:56.195Z,53.86
2023-02-28T16:30:26.962Z,54.07
2023-02-28T16:32:57.848Z,53.95
2023-02-28T16:35:26.848Z,53.85
2023-02-28T16:37:55.933Z,54.34
2023-02-28T16:40:29.665Z,54.07
2023-02-28T16:43:02.116Z,54.04
2023-02-28T16:45:31.283Z,54.16
2023-02-28T16:48:01.108Z,53.70
2023-02-28T16:50:31.121Z,54.37
2023-02-28T16:52:59.618Z,53.89
2023-02-28T16:55:29.151Z,54.30
2023-02-28T16:57:59.376Z,54.08
2023-02-28T17:00:29.768Z,54.53
2023-02-28T17:02:58.432Z,54.52
2023-02-28T17:05:35.481Z,54.16
2023-02-28T17:08:03.841Z,54.45
2023-02-28T17:10:32.368Z,54.83
2023-02-28T17:13:14.166Z,54.59
2023-02-28T17:15:43.966Z,54.81
2023-02-28T17:18:17.112Z,54.62
2023-02-28T17:20:47.274Z,54.93
2023-02-28T17:23:16.154Z,55.49
2023-02-28T17:25:55.715Z,55.21
2023-02-28T17:28:26.499Z,55.03
2023-02-28T17:30:55.000Z,55.13
2023-02-28T17:33:23.431Z,55.38
2023-02-28T17:35:53.204Z,55.73
2023-02-28T17:38:24.075Z,55.63
2023-02-28T17:40:58.126Z,53.67
2023-02-28T17:43:26.957Z,54.27
2023-02-28T17:45:57.445Z,53.47
2023-02-28T17:48:26.102Z,53.93
2023-02-28T17:50:56.649Z,53.45
2023-02-28T17:53:25.264Z,53.79
2023-02-28T17:55:53.699Z,53.97
2023-02-28T17:58:22.161Z,54.23
2023-02-28T18:00:54.994Z,54.68
2023-02-28T18:03:24.879Z,54.85
2023-02-28T18:05:53.318Z,55.28
2023-02-28T18:08:23.262Z,55.19
2023-02-28T18:10:51.721Z,55.36
2023-02-28T18:13:20.387Z,55.91
2023-02-28T18:15:49.230Z,56.30
2023-02-28T18:18:17.833Z,56.86
2023-02-28T18:20:47.450Z,57.17
2023-02-28T18:23:18.284Z,57.56
2023-02-28T18:25:48.422Z,57.94
2023-02-28T18:28:16.935Z,57.77
2023-02-28T18:30:45.276Z,58.04
2023-02-28T18:33:13.626Z,58.01
2023-02-28T18:35:42.126Z,58.42
2023-02-28T18:38:15.053Z,58.39
2023-02-28T18:40:44.298Z,58.37
2023-02-28T18:43:14.793Z,58.53
2023-02-28T18:45:43.435Z,58.54
2023-02-28T18:48:11.791Z,58.79
2023-02-28T18:50:41.424Z,58.59
2023-02-28T18:53:09.847Z,58.97
2023-02-28T18:55:38.984Z,58.97
2023-02-28T18:58:08.893Z,58.94
2023-02-28T19:00:39.070Z,59.09
2023-02-28T19:03:07.745Z,58.78
2023-02-28T19:05:38.248Z,58.69
2023-02-28T19:08:06.957Z,58.79
2023-02-28T19:10:35.577Z,58.94
2023-02-28T19:13:04.863Z,58.96
2023-02-28T19:15:33.276Z,59.17
2023-02-28T19:18:03.430Z,58.65
2023-02-28T19:20:32.131Z,58.42
2023-02-28T19:23:01.513Z,58.66
2023-02-28T19:25:31.027Z,58.14
2023-02-28T19:27:59.454Z,58.50
2023-02-28T19:30:28.068Z,58.53
2023-02-28T19:32:58.314Z,58.59
2023-02-28T19:35:28.429Z,58.29
2023-02-28T19:37:58.881Z,58.35
2023-02-28T19:40:27.795Z,58.49
2023-02-28T19:42:56.158Z,58.70
2023-02-28T19:45:26.585Z,58.35
2023-02-28T19:47:55.951Z,58.36
2023-02-28T19:50:25.302Z,58.52
2023-02-28T19:52:57.074Z,58.41
2023-02-28T19:55:26.383Z,58.40
2023-02-28T19:57:54.817Z,58.87
2023-02-28T20:00:23.671Z,58.88
2023-02-28T20:02:52.451Z,59.52
2023-02-28T20:05:20.804Z,60.26
2023-02-28T20:07:49.208Z,60.71
2023-02-28T20:10:20.263Z,60.82
2023-02-28T20:12:49.059Z,61.19
2023-02-28T20:15:17.689Z,61.50
2023-02-28T20:17:46.888Z,61.43
2023-02-28T20:20:15.422Z,61.82
2023-02-28T20:22:44.594Z,62.20
2023-02-28T20:25:13.211Z,61.80
2023-02-28T20:27:43.854Z,61.44
2023-02-28T20:30:13.668Z,62.28
2023-02-28T20:32:42.374Z,62.23
2023-02-28T20:35:12.447Z,62.81
2023-02-28T20:37:41.373Z,62.79
2023-02-28T20:40:11.342Z,63.23
2023-02-28T20:42:39.823Z,63.55
2023-02-28T20:45:11.263Z,64.53
2023-02-28T20:47:39.704Z,63.88
2023-02-28T20:50:09.895Z,64.29
2023-02-28T20:52:38.327Z,63.94
2023-02-28T20:55:08.209Z,63.42
2023-02-28T20:57:36.680Z,63.63
2023-02-28T21:00:07.997Z,63.79
2023-02-28T21:02:37.978Z,64.05
2023-02-28T21:05:07.388Z,63.73
2023-02-28T21:07:35.900Z,63.43
2023-02-28T21:10:04.321Z,63.35
2023-02-28T21:12:32.754Z,63.32
2023-02-28T21:15:01.323Z,63.57
2023-02-28T21:17:30.378Z,63.11
2023-02-28T21:20:00.291Z,62.68
2023-02-28T21:22:28.694Z,63.31
2023-02-28T21:24:57.144Z,63.29
2023-02-28T21:27:25.569Z,62.85
2023-02-28T21:29:54.077Z,63.26
2023-02-28T21:32:22.439Z,63.40
2023-02-28T21:34:50.866Z,62.82
2023-02-28T21:37:20.647Z,63.20
2023-02-28T21:39:48.991Z,62.99
2023-02-28T21:42:17.518Z,62.51
2023-02-28T21:44:46.440Z,62.23
2023-02-28T21:47:14.834Z,62.31
2023-02-28T21:49:43.270Z,61.95
2023-02-28T21:52:11.755Z,61.32
2023-02-28T21:54:41.606Z,61.70
2023-02-28T21:57:11.439Z,61.58
2023-02-28T21:59:41.279Z,61.35
2023-02-28T22:02:10.873Z,61.43
2023-02-28T22:04:40.748Z,61.59
2023-02-28T22:07:09.145Z,60.98
2023-02-28T22:09:37.792Z,61.21
2023-02-28T22:12:08.637Z,61.54
2023-02-28T22:14:39.912Z,61.57
2023-02-28T22:17:08.419Z,61.38
2023-02-28T22:19:36.857Z,62.12
2023-02-28T22:22:05.289Z,62.32
2023-02-28T22:24:33.804Z,62.14
2023-02-28T22:27:02.381Z,61.79
2023-02-28T22:29:32.122Z,61.79
2023-02-28T22:32:00.614Z,62.43
2023-02-28T22:34:29.020Z,62.35
2023-02-28T22:36:58.111Z,62.93
2023-02-28T22:39:26.563Z,62.33
2023-02-28T22:41:56.891Z,61.85
2023-02-28T22:44:25.245Z,61.59
2023-02-28T22:46:56.174Z,62.07
2023-02-28T22:49:25.209Z,61.66
2023-02-28T22:51:53.619Z,62.20
2023-02-28T22:54:21.977Z,61.64
2023-02-28T22:56:50.276Z,61.92
2023-02-28T22:59:18.711Z,62.22
2023-02-28T23:01:47.098Z,62.04
2023-02-28T23:04:17.105Z,62.47
2023-02-28T23:06:46.292Z,62.05
2023-02-28T23:09:18.320Z,62.59
2023-02-28T23:11:48.922Z,62.25
2023-02-28T23:14:18.775Z,62.92
2023-02-28T23:16:48.666Z,62.08
2023-02-28T23:19:20.965Z,61.74
2023-02-28T23:21:49.636Z,61.81
2023-02-28T23:24:20.311Z,62.48
2023-02-28T23:26:51.333Z,62.75
2023-02-28T23:29:21.168Z,62.19
2023-02-28T23:31:50.328Z,62.92
2023-02-28T23:34:26.486Z,62.84
2023-02-28T23:36:56.728Z,63.14
2023-02-28T23:39:26.105Z,63.72
2023-02-28T23:41:54.520Z,63.50
2023-02-28T23:44:23.093Z,63.69
2023-02-28T23:46:54.301Z,63.65
2023-02-28T23:49:24.506Z,63.96
2023-02-28T23:51:54.585Z,64.33
2023-02-28T23:54:23.369Z,63.89
2023-02-28T23:56:52.008Z,64.19
2023-02-28T23:59:21.273Z,63.49
